Aeneas, Washington
Current Conditions -  °F | °C
As of 10:53 PM on Friday 24 Oct 2014 (Local Time) from KOMK Reporting Station
Light Rain Light Rain  
Wind Chill:   Ceiling: 4700
Heat Index:   Visibility: 10mi
Dew Point:   Wind: 5mph
Humidity: 86%   Direction: 320°NW
Pressure: 29.99"   Gusts: NA
Location:  48.6708°N, 119.278°W
Report Text: KOMK 250553Z AUTO 32004KT 10SM -RA OVC047 08/06 A2999 RMK AO2 SLP162 P0001 60001 T00780056 10111 20072 56008
Loading
Personal Weather Stations






























Interactive Weather Map
Tropical Storm Tracking
New forecast layout! Learn more

10-Day Weather Forecast

Advertisements
Track Severe Weather on mobile